Terminal Aerodrome Forecast
Issued by NWS Corpus Christi, TX

Home | Current Version | Previous Version | Text Only | Print | Product List | Glossary On
Versions: 1 2 3 4 5 6 7 8 9 10 11 12 13 14 15 16 17
000
FTUS44 KCRP 250446 AAB
TAFCRP
TAF AMD
KCRP 250446Z 2505/2524 14005KT P6SM VCSH SCT025 BKN080
      TEMPO 2505/2508 6SM -SHRA BKN025
     FM250800 09004KT P6SM BKN015 OVC200
     FM251300 09006KT P6SM VCSH BKN025
     FM251700 09010KT P6SM VCTS BKN035CB
      TEMPO 2517/2520 5SM TSRA OVC035CB
     FM252000 09012G18KT P6SM SCT040 BKN250=

USA.gov is the U.S. government's official web portal to all federal, state and local government web resources and services.